createdAt,value
2019-05-22T00:02:43.125Z,16.07
2019-05-22T00:07:46.799Z,13.73
2019-05-22T00:12:49.302Z,13.80
2019-05-22T00:17:53.694Z,13.07
2019-05-22T00:22:56.700Z,13.27
2019-05-22T00:27:59.378Z,12.57
2019-05-22T00:33:02.170Z,11.60
2019-05-22T00:38:06.712Z,11.07
2019-05-22T00:43:13.731Z,11.03
2019-05-22T00:48:16.158Z,10.47
2019-05-22T00:53:28.232Z,12.07
2019-05-22T00:58:34.734Z,9.80
2019-05-22T01:03:38.276Z,11.90
2019-05-22T01:08:41.708Z,17.10
2019-05-22T01:13:45.726Z,18.23
2019-05-22T01:18:49.514Z,19.33
2019-05-22T01:23:55.084Z,17.63
2019-05-22T01:28:58.775Z,19.20
2019-05-22T01:34:21.383Z,19.60
2019-05-22T01:39:42.369Z,21.10
2019-05-22T01:44:59.703Z,24.87
2019-05-22T01:49:53.545Z,24.63
2019-05-22T01:54:57.221Z,28.20
2019-05-22T02:00:00.472Z,23.37
2019-05-22T02:05:04.783Z,24.07
2019-05-22T02:10:12.829Z,25.13
2019-05-22T02:15:17.239Z,22.80
2019-05-22T02:20:19.914Z,21.00
2019-05-22T02:25:23.301Z,22.33
2019-05-22T02:30:26.724Z,21.57
2019-05-22T02:35:30.310Z,22.33
2019-05-22T02:40:36.804Z,23.87
2019-05-22T02:45:39.432Z,25.67
2019-05-22T02:50:41.977Z,23.97
2019-05-22T02:55:44.666Z,23.43
2019-05-22T03:00:56.762Z,26.30
2019-05-22T03:05:59.785Z,29.73
2019-05-22T03:11:02.433Z,28.67
2019-05-22T03:16:05.703Z,29.83
2019-05-22T03:21:08.419Z,31.83
2019-05-22T03:26:12.597Z,32.47
2019-05-22T03:31:15.911Z,31.80
2019-05-22T03:36:21.726Z,35.57
2019-05-22T03:41:23.798Z,34.03
2019-05-22T03:46:39.488Z,31.77
2019-05-22T03:51:43.967Z,29.97
2019-05-22T03:56:47.291Z,26.57
2019-05-22T04:01:50.660Z,27.77
2019-05-22T04:06:54.078Z,27.00
2019-05-22T04:11:57.490Z,28.03
2019-05-22T04:17:00.307Z,24.10
2019-05-22T04:22:03.315Z,23.27
2019-05-22T04:27:06.356Z,23.57
2019-05-22T04:32:18.048Z,23.37
2019-05-22T04:37:20.506Z,21.30
2019-05-22T04:42:24.357Z,23.23
2019-05-22T04:47:26.562Z,24.07
2019-05-22T04:52:30.507Z,22.20
2019-05-22T04:57:32.808Z,22.63
2019-05-22T05:02:35.556Z,21.67
2019-05-22T05:07:38.654Z,20.93
2019-05-22T05:12:42.015Z,21.57
2019-05-22T05:17:44.554Z,21.37
2019-05-22T05:22:52.589Z,19.27
2019-05-22T05:27:58.466Z,19.17
2019-05-22T05:33:01.573Z,19.80
2019-05-22T05:38:05.520Z,19.03
2019-05-22T05:43:11.581Z,17.53
2019-05-22T05:48:17.214Z,17.17
2019-05-22T05:53:21.975Z,17.40
2019-05-22T05:58:28.146Z,18.17
2019-05-22T06:03:40.821Z,17.83
2019-05-22T06:08:45.395Z,18.10
2019-05-22T06:13:49.066Z,18.27
2019-05-22T06:18:56.946Z,18.57
2019-05-22T06:24:25.016Z,17.37
2019-05-22T06:29:49.220Z,18.60
2019-05-22T06:34:52.090Z,17.57
2019-05-22T06:39:55.565Z,17.57
2019-05-22T06:44:58.002Z,17.00
2019-05-22T06:50:01.262Z,15.57
2019-05-22T06:55:03.946Z,15.57
2019-05-22T07:00:19.969Z,16.67
2019-05-22T07:05:23.391Z,15.77
2019-05-22T07:10:26.746Z,15.70
2019-05-22T07:16:01.700Z,14.80
2019-05-22T07:21:06.015Z,13.90
2019-05-22T07:26:08.776Z,14.67
2019-05-22T07:31:11.158Z,12.53
2019-05-22T07:36:17.299Z,12.43
2019-05-22T07:41:19.915Z,12.07
2019-05-22T07:46:23.046Z,12.07
2019-05-22T07:51:25.436Z,11.10
2019-05-22T07:56:29.677Z,10.87
2019-05-22T08:01:34.132Z,11.83
2019-05-22T08:06:36.612Z,11.33
2019-05-22T08:11:39.412Z,12.20
2019-05-22T08:16:42.143Z,12.87
2019-05-22T08:21:44.276Z,12.37
2019-05-22T08:26:54.315Z,11.33
2019-05-22T08:31:52.873Z,11.40
2019-05-22T08:36:55.400Z,10.90
2019-05-22T08:41:57.529Z,11.53
2019-05-22T08:47:00.624Z,12.30
2019-05-22T08:52:04.090Z,12.47
2019-05-22T08:57:08.398Z,11.90
2019-05-22T09:02:11.792Z,11.27
2019-05-22T09:07:13.886Z,11.27
2019-05-22T09:12:16.367Z,10.33
2019-05-22T09:17:18.652Z,8.93
2019-05-22T09:22:21.103Z,9.70
2019-05-22T09:27:23.394Z,11.17
2019-05-22T09:32:25.718Z,12.23
2019-05-22T09:37:28.287Z,12.50
2019-05-22T09:42:32.054Z,12.83
2019-05-22T09:47:35.470Z,11.10
2019-05-22T09:52:37.801Z,11.70
2019-05-22T09:57:40.158Z,12.47
2019-05-22T10:02:42.887Z,11.67
2019-05-22T10:07:59.029Z,11.63
2019-05-22T10:12:50.943Z,12.13
2019-05-22T10:17:53.662Z,11.63
2019-05-22T10:22:55.857Z,9.83
2019-05-22T10:27:59.484Z,10.50
2019-05-22T10:33:01.854Z,10.70
2019-05-22T10:38:04.635Z,9.63
2019-05-22T10:43:07.067Z,9.70
2019-05-22T10:48:09.708Z,8.83
2019-05-22T10:53:12.219Z,9.60
2019-05-22T10:58:17.388Z,9.07
2019-05-22T11:03:20.814Z,9.47
2019-05-22T11:08:24.114Z,11.27
2019-05-22T11:13:26.622Z,9.67
2019-05-22T11:18:29.218Z,9.43
2019-05-22T11:23:31.812Z,8.77
2019-05-22T11:28:34.110Z,9.73
2019-05-22T11:33:36.448Z,9.90
2019-05-22T11:38:38.528Z,8.87
2019-05-22T11:43:41.504Z,7.90
2019-05-22T11:48:43.663Z,7.67
2019-05-22T11:53:46.264Z,7.17
2019-05-22T11:58:48.897Z,8.43
2019-05-22T12:03:51.439Z,8.00
2019-05-22T12:08:53.621Z,8.57
2019-05-22T12:13:55.705Z,9.03
2019-05-22T12:18:59.074Z,10.03
2019-05-22T12:24:01.522Z,9.47
2019-05-22T12:29:04.122Z,9.70
2019-05-22T12:34:06.484Z,9.17
2019-05-22T12:39:09.902Z,9.70
2019-05-22T12:44:13.609Z,9.53
2019-05-22T12:49:17.582Z,8.83
2019-05-22T12:54:19.665Z,9.87
2019-05-22T12:59:24.842Z,12.70
2019-05-22T13:04:29.617Z,10.67
2019-05-22T13:09:31.804Z,12.10
2019-05-22T13:14:34.478Z,11.97
2019-05-22T13:19:37.340Z,11.57
2019-05-22T13:24:40.589Z,11.87
2019-05-22T13:29:47.946Z,13.00
2019-05-22T13:34:53.416Z,15.33
2019-05-22T13:39:57.908Z,14.50
2019-05-22T13:45:03.626Z,14.80
2019-05-22T13:50:06.728Z,13.13
2019-05-22T13:55:09.776Z,12.17
2019-05-22T14:00:16.572Z,12.10
2019-05-22T14:05:19.332Z,14.70
2019-05-22T14:10:22.980Z,16.87
2019-05-22T14:15:25.776Z,16.07
2019-05-22T14:20:28.399Z,15.87
2019-05-22T14:25:31.073Z,15.33
2019-05-22T14:30:33.165Z,16.37
2019-05-22T14:35:48.516Z,15.17
2019-05-22T14:40:44.249Z,13.33
2019-05-22T14:45:46.593Z,12.33
2019-05-22T14:50:48.634Z,12.63
2019-05-22T14:55:54.580Z,12.47
2019-05-22T15:00:56.764Z,12.03
2019-05-22T15:05:59.237Z,11.70
2019-05-22T15:11:01.536Z,13.20
2019-05-22T15:16:03.657Z,12.53
2019-05-22T15:21:13.060Z,13.53
2019-05-22T15:26:16.175Z,12.20
2019-05-22T15:31:26.336Z,11.67
2019-05-22T15:36:28.550Z,10.30
2019-05-22T15:41:32.206Z,9.33
2019-05-22T15:46:35.462Z,9.57
2019-05-22T15:51:39.662Z,8.10
2019-05-22T15:56:43.461Z,8.77
2019-05-22T16:01:46.711Z,7.17
2019-05-22T16:06:49.935Z,10.07
2019-05-22T16:11:53.719Z,9.80
2019-05-22T16:16:57.094Z,10.37
2019-05-22T16:22:02.898Z,9.40
2019-05-22T16:27:08.892Z,8.97
2019-05-22T16:32:13.848Z,7.57
2019-05-22T16:37:19.766Z,8.30
2019-05-22T16:42:22.929Z,7.70
2019-05-22T16:47:25.615Z,7.83
2019-05-22T16:52:28.641Z,8.07
2019-05-22T16:57:32.324Z,8.00
2019-05-22T17:02:36.153Z,6.90
2019-05-22T17:07:41.386Z,8.30
2019-05-22T17:12:45.907Z,7.27
2019-05-22T17:17:48.759Z,7.67
2019-05-22T17:22:52.840Z,7.47
2019-05-22T17:27:57.124Z,7.70
2019-05-22T17:33:00.103Z,7.10
2019-05-22T17:38:06.428Z,6.00
2019-05-22T17:43:09.969Z,5.97
2019-05-22T17:48:17.540Z,5.53
2019-05-22T17:53:20.377Z,5.67
2019-05-22T17:58:30.149Z,13.33
2019-05-22T18:03:32.639Z,10.90
2019-05-22T18:08:36.327Z,5.20
2019-05-22T18:13:59.268Z,5.10
2019-05-22T18:19:01.875Z,6.10
2019-05-22T18:24:04.719Z,5.77
2019-05-22T18:29:09.582Z,7.50
2019-05-22T18:34:11.860Z,5.57
2019-05-22T18:39:23.363Z,5.77
2019-05-22T18:44:25.534Z,5.50
2019-05-22T18:49:27.589Z,5.97
2019-05-22T18:54:29.706Z,6.17
2019-05-22T18:59:31.750Z,5.17
2019-05-22T19:04:33.940Z,6.50
2019-05-22T19:09:36.263Z,6.07
2019-05-22T19:14:38.808Z,5.30
2019-05-22T19:19:41.145Z,5.17
2019-05-22T19:24:43.240Z,5.07
2019-05-22T19:29:45.294Z,4.90
2019-05-22T19:34:47.240Z,4.93
2019-05-22T19:39:50.362Z,4.83
2019-05-22T19:44:53.106Z,5.53
2019-05-22T19:49:55.244Z,5.70
2019-05-22T19:54:58.474Z,5.13
2019-05-22T20:00:02.982Z,5.47
2019-05-22T20:05:07.044Z,5.70
2019-05-22T20:10:09.577Z,5.63
2019-05-22T20:15:12.092Z,5.10
2019-05-22T20:20:16.797Z,4.93
2019-05-22T20:25:21.549Z,5.00
2019-05-22T20:30:24.069Z,4.93
2019-05-22T20:35:26.458Z,5.20
2019-05-22T20:40:29.739Z,4.87
2019-05-22T20:45:33.069Z,4.73
2019-05-22T20:50:35.880Z,5.43
2019-05-22T20:55:39.642Z,5.13
2019-05-22T21:00:43.016Z,4.97
2019-05-22T21:05:45.337Z,5.80
2019-05-22T21:10:47.986Z,4.50
2019-05-22T21:15:51.775Z,4.90
2019-05-22T21:20:55.625Z,4.73
2019-05-22T21:25:57.948Z,5.50
2019-05-22T21:31:02.219Z,4.23
2019-05-22T21:36:05.698Z,5.07
2019-05-22T21:41:08.512Z,4.67
2019-05-22T21:46:11.949Z,4.70
2019-05-22T21:51:15.213Z,4.60
2019-05-22T21:56:17.363Z,4.30
2019-05-22T22:01:39.735Z,4.40
2019-05-22T22:06:42.381Z,4.73
2019-05-22T22:11:45.049Z,4.90
2019-05-22T22:16:47.878Z,4.40
2019-05-22T22:21:50.457Z,5.03
2019-05-22T22:26:53.262Z,4.67
2019-05-22T22:31:57.681Z,5.30
2019-05-22T22:37:00.537Z,5.03
2019-05-22T22:42:04.867Z,4.27
2019-05-22T22:47:13.910Z,4.73
2019-05-22T22:52:18.750Z,4.63
2019-05-22T22:57:21.729Z,4.50
2019-05-22T23:02:28.957Z,5.00
2019-05-22T23:07:34.102Z,5.63
2019-05-22T23:12:38.081Z,4.90
2019-05-22T23:17:42.069Z,5.17
2019-05-22T23:22:43.448Z,5.27
2019-05-22T23:27:45.921Z,5.30
2019-05-22T23:33:09.847Z,5.23
2019-05-22T23:38:12.620Z,4.90
2019-05-22T23:43:15.002Z,4.73
2019-05-22T23:48:17.340Z,5.50
2019-05-22T23:53:22.657Z,5.70
2019-05-22T23:58:25.638Z,6.03
